Time;durP1;ratioP1;P1;durP2;ratioP2;P2;SDS_P1;SDS_P2;PMS_P1;PMS_P2;Temp;Humidity;BMP_temperature;BMP_pressure;BME280_temperature;BME280_humidity;BME280_pressure;Samples;Min_cycle;Max_cycle;Signal;HPM_P1;HPM_P2
2022/05/08 00:01:45;;;;;;;3.70;3.40;;;;;;;10.78;100.00;100777.44;5002027;28;20199;-50
2022/05/08 00:04:11;;;;;;;4.33;3.97;;;;;;;10.73;100.00;100777.44;5002036;28;20212;-51
2022/05/08 00:06:36;;;;;;;5.13;3.77;;;;;;;10.71;100.00;100792.13;5003019;28;21005;-50
2022/05/08 00:09:02;;;;;;;4.03;3.53;;;;;;;10.70;100.00;100784.34;5004458;28;20211;-51
2022/05/08 00:11:27;;;;;;;4.93;4.50;;;;;;;10.70;100.00;100785.22;4983904;28;20195;-50
2022/05/08 00:13:52;;;;;;;4.23;3.83;;;;;;;10.67;100.00;100774.84;5002045;28;20216;-51
2022/05/08 00:16:18;;;;;;;4.20;3.90;;;;;;;10.65;100.00;100784.34;5001147;28;20988;-51
2022/05/08 00:18:43;;;;;;;3.87;3.50;;;;;;;10.64;100.00;100782.63;5001738;28;20192;-51
2022/05/08 00:21:08;;;;;;;4.07;3.77;;;;;;;10.62;100.00;100780.03;5006598;28;20191;-50
2022/05/08 00:23:34;;;;;;;4.40;4.00;;;;;;;10.58;100.00;100780.91;4995236;28;20196;-51
2022/05/08 00:25:59;;;;;;;4.53;4.13;;;;;;;10.55;100.00;100782.63;5005580;28;20548;-52
2022/05/08 00:28:24;;;;;;;4.43;4.13;;;;;;;10.51;100.00;100781.78;5001558;28;20222;-51
2022/05/08 00:30:50;;;;;;;4.50;4.10;;;;;;;10.48;100.00;100784.38;4997564;28;20636;-52
2022/05/08 00:33:15;;;;;;;4.30;4.00;;;;;;;10.45;100.00;100794.72;5002940;28;20701;-51
2022/05/08 00:35:41;;;;;;;4.50;4.20;;;;;;;10.41;100.00;100786.09;5001729;28;20251;-51
2022/05/08 00:38:08;;;;;;;5.17;4.77;;;;;;;10.37;100.00;100781.75;5002792;28;20231;-51
2022/05/08 00:40:35;;;;;;;5.10;4.70;;;;;;;10.32;100.00;100783.47;5003067;28;20220;-51
2022/05/08 00:43:24;;;;;;;4.20;3.87;;;;;;;10.30;100.00;100780.00;5007290;28;20193;-52
2022/05/08 00:45:49;;;;;;;4.70;4.40;;;;;;;10.27;100.00;100775.72;4990514;28;20216;-52
2022/05/08 00:48:14;;;;;;;5.00;4.60;;;;;;;10.26;100.00;100775.72;5001427;28;20203;-51
2022/05/08 00:50:40;;;;;;;4.83;4.43;;;;;;;10.24;100.00;100780.03;5002517;28;20192;-51
2022/05/08 00:53:05;;;;;;;4.20;3.90;;;;;;;10.21;100.00;100767.94;5004464;28;20191;-51
2022/05/08 00:55:31;;;;;;;5.83;4.00;;;;;;;10.17;100.00;100776.56;5002629;28;20244;-51
2022/05/08 00:57:56;;;;;;;4.97;4.47;;;;;;;10.13;100.00;100773.13;5005977;28;20216;-52
2022/05/08 01:00:22;;;;;;;4.50;4.10;;;;;;;10.09;100.00;100776.56;5001443;28;20203;-51
2022/05/08 01:02:47;;;;;;;4.70;4.30;;;;;;;10.03;100.00;100772.25;5005135;28;20268;-52
2022/05/08 01:05:12;;;;;;;4.60;4.30;;;;;;;9.99;100.00;100767.06;5004345;28;20296;-51
2022/05/08 01:07:38;;;;;;;4.90;4.40;;;;;;;9.95;100.00;100768.78;5005818;28;20455;-51
2022/05/08 01:10:04;;;;;;;4.30;4.00;;;;;;;9.91;100.00;100769.63;5002356;28;21173;-51
2022/05/08 01:12:32;;;;;;;4.60;4.17;;;;;;;9.87;100.00;100770.50;5010244;28;20189;-52
2022/05/08 01:15:18;;;;;;;4.83;4.43;;;;;;;9.83;100.00;100777.38;5004101;28;20213;-51
2022/05/08 01:17:45;;;;;;;5.10;4.60;;;;;;;9.79;100.00;100773.06;5002829;28;20494;-52
2022/05/08 01:20:11;;;;;;;4.60;4.30;;;;;;;9.74;100.00;100772.19;5005718;28;20710;-51
2022/05/08 01:22:37;;;;;;;4.73;4.20;;;;;;;9.71;100.00;100777.34;5003275;28;20239;-52
2022/05/08 01:25:03;;;;;;;5.03;4.70;;;;;;;9.67;100.00;100770.47;5002996;28;20962;-51
2022/05/08 01:27:29;;;;;;;4.60;4.30;;;;;;;9.64;100.00;100770.47;5007360;28;20203;-51
2022/05/08 01:29:55;;;;;;;6.30;4.37;;;;;;;9.63;100.00;100772.16;5006210;28;20196;-50
2022/05/08 01:32:20;;;;;;;4.70;4.40;;;;;;;9.63;100.00;100774.75;4999504;28;20204;-51
2022/05/08 01:34:45;;;;;;;4.30;4.00;;;;;;;9.63;100.00;100774.75;5004509;28;20303;-51
2022/05/08 01:37:11;;;;;;;4.57;4.27;;;;;;;9.62;100.00;100773.03;5005764;28;20220;-52
2022/05/08 01:39:36;;;;;;;4.40;4.10;;;;;;;9.59;100.00;100773.88;5005830;28;20205;-51
2022/05/08 01:42:04;;;;;;;4.70;4.30;;;;;;;9.58;100.00;100779.06;5006358;28;20255;-51
2022/05/08 01:44:30;;;;;;;4.90;4.50;;;;;;;9.55;100.00;100779.03;5003400;28;20266;-51
2022/05/08 01:49:40;;;;;;;4.47;4.07;;;;;;;9.50;100.00;100778.16;5007331;28;20280;-51
2022/05/08 01:52:06;;;;;;;4.73;4.33;;;;;;;9.49;100.00;100777.31;5002939;28;20271;-51
2022/05/08 01:54:31;;;;;;;4.90;4.50;;;;;;;9.46;100.00;100777.28;4996418;28;20217;-50
2022/05/08 01:56:56;;;;;;;5.17;4.67;;;;;;;9.43;100.00;100772.09;5005663;28;20209;-52
2022/05/08 01:59:22;;;;;;;4.50;4.10;;;;;;;9.40;100.00;100778.13;5002922;28;20231;-50
2022/05/08 02:01:47;;;;;;;5.30;4.90;;;;;;;9.38;100.00;100774.69;5004752;28;20258;-52
2022/05/08 02:04:15;;;;;;;4.67;4.27;;;;;;;9.37;100.00;100772.09;5003837;28;20674;-50
2022/05/08 02:06:44;;;;;;;5.00;4.60;;;;;;;9.34;100.00;100777.25;5006278;28;20191;-50
2022/05/08 02:09:10;;;;;;;4.90;4.50;;;;;;;9.33;100.00;100771.19;5005744;28;20196;-50
2022/05/08 02:11:35;;;;;;;5.03;4.63;;;;;;;9.32;100.00;100773.78;5005990;28;20196;-50
2022/05/08 02:14:02;;;;;;;5.20;4.73;;;;;;;9.27;100.00;100777.22;5003183;28;20282;-51
2022/05/08 02:16:28;;;;;;;5.90;5.00;;;;;;;9.23;100.00;100770.28;5003419;28;20559;-52
2022/05/08 02:18:54;;;;;;;5.27;4.87;;;;;;;9.21;100.00;100771.16;5004553;28;20207;-52
2022/05/08 02:21:20;;;;;;;4.70;4.30;;;;;;;9.19;100.00;100775.44;5008087;28;20192;-52
2022/05/08 02:23:45;;;;;;;5.13;4.73;;;;;;;9.18;100.00;100779.75;5003813;28;20812;-52
2022/05/08 02:26:10;;;;;;;5.10;4.70;;;;;;;9.14;100.00;100771.16;5005250;28;20669;-52
2022/05/08 02:28:36;;;;;;;4.40;4.10;;;;;;;9.12;100.00;100780.59;5007258;28;20196;-52
2022/05/08 02:31:01;;;;;;;5.00;4.60;;;;;;;9.09;100.00;100769.38;5005661;28;20276;-51
2022/05/08 02:33:26;;;;;;;5.27;4.87;;;;;;;9.06;100.00;100783.13;5004518;28;20227;-51
2022/05/08 02:35:52;;;;;;;5.13;4.63;;;;;;;9.03;100.00;100775.38;5003696;28;20658;-51
2022/05/08 02:38:17;;;;;;;5.60;4.60;;;;;;;8.99;100.00;100769.34;5006352;28;20188;-51
2022/05/08 02:40:43;;;;;;;4.47;4.07;;;;;;;8.96;100.00;100771.91;5005054;28;20271;-51
2022/05/08 02:43:08;;;;;;;4.50;4.20;;;;;;;8.93;100.00;100777.03;5003045;28;20986;-51
2022/05/08 02:45:34;;;;;;;4.80;4.40;;;;;;;8.91;100.00;100778.78;5003663;28;20298;-51
2022/05/08 02:47:59;;;;;;;4.33;4.03;;;;;;;8.88;100.00;100775.28;5006520;28;20191;-51
2022/05/08 02:50:25;;;;;;;4.00;3.70;;;;;;;8.83;100.00;100772.69;5003960;28;20230;-50
2022/05/08 02:52:51;;;;;;;4.13;3.73;;;;;;;8.81;100.00;100771.81;4988138;28;20196;-51
2022/05/08 03:00:46;;;;;;;4.87;4.47;;;;;;;8.73;100.00;100769.19;5003850;28;20284;-51
2022/05/08 03:03:12;;;;;;;4.40;4.00;;;;;;;8.75;100.00;100774.38;5004909;28;20199;-51
2022/05/08 03:05:41;;;;;;;4.57;3.93;;;;;;;8.77;100.00;100778.66;5006089;28;20214;-51
2022/05/08 03:08:07;;;;;;;5.20;4.80;;;;;;;8.78;100.00;100789.84;5004661;28;20207;-52
2022/05/08 03:11:25;;;;;;;5.20;4.80;;;;;;;8.78;100.00;100788.16;5004593;28;20192;-50
2022/05/08 03:13:18;;;;;;;4.63;4.30;;;;;;;8.79;100.00;100791.56;5001333;28;20204;-52
2022/05/08 03:15:44;;;;;;;4.43;4.13;;;;;;;8.80;100.00;100785.56;5002256;28;20292;-51
2022/05/08 03:18:09;;;;;;;4.83;4.43;;;;;;;8.74;100.00;100786.38;5001580;28;20634;-52
2022/05/08 03:20:35;;;;;;;4.57;4.27;;;;;;;8.70;100.00;100794.94;5005053;28;20200;-51
2022/05/08 03:23:00;;;;;;;4.90;4.43;;;;;;;8.66;100.00;100800.97;5000818;28;20212;-51
2022/05/08 03:25:25;;;;;;;4.73;4.33;;;;;;;8.59;100.00;100792.31;5004761;28;20267;-52
2022/05/08 03:27:51;;;;;;;4.97;4.57;;;;;;;8.54;100.00;100807.78;5002882;28;20240;-51
2022/05/08 03:30:16;;;;;;;4.73;4.43;;;;;;;8.51;100.00;100797.41;5000370;28;20197;-51
2022/05/08 03:32:42;;;;;;;5.20;4.80;;;;;;;8.51;100.00;100801.69;5004959;28;20192;-52
2022/05/08 03:35:08;;;;;;;4.33;4.00;;;;;;;8.51;100.00;100800.00;5000823;28;20221;-51
2022/05/08 03:37:33;;;;;;;5.13;4.73;;;;;;;8.49;100.00;100799.13;5004542;28;20236;-52
2022/05/08 03:39:59;;;;;;;4.90;4.50;;;;;;;8.47;100.00;100808.53;5002410;28;20238;-52
2022/05/08 03:42:24;;;;;;;5.37;4.97;;;;;;;8.45;100.00;100794.75;5003286;28;20238;-52
2022/05/08 03:44:53;;;;;;;6.20;5.60;;;;;;;8.45;100.00;100799.06;5001649;28;20219;-51
2022/05/08 03:47:19;;;;;;;5.40;5.00;;;;;;;8.48;100.00;100794.81;5001324;28;20194;-52
2022/05/08 03:49:44;;;;;;;5.10;4.70;;;;;;;8.52;100.00;100801.72;4999913;28;20200;-51
2022/05/08 03:52:10;;;;;;;5.63;5.20;;;;;;;8.56;100.00;100791.41;5000365;28;20222;-50
2022/05/08 03:54:35;;;;;;;5.37;4.97;;;;;;;8.53;100.00;100800.00;4977548;28;20208;-50
2022/05/08 03:57:00;;;;;;;5.20;4.80;;;;;;;8.49;100.00;100795.66;5000628;28;20216;-52
2022/05/08 03:59:26;;;;;;;5.50;5.10;;;;;;;8.46;100.00;100799.06;5003523;28;20188;-52
2022/05/08 04:01:54;;;;;;;5.53;5.03;;;;;;;8.46;100.00;100798.22;5001579;28;20192;-52
2022/05/08 04:04:20;;;;;;;5.17;4.77;;;;;;;8.46;100.00;100795.63;5001636;28;20969;-52
2022/05/08 04:06:45;;;;;;;5.87;5.47;;;;;;;8.47;100.00;100798.22;4984974;28;20188;-51
2022/05/08 04:09:10;;;;;;;5.00;4.70;;;;;;;8.52;100.00;100790.53;5001314;28;20219;-52
2022/05/08 04:11:36;;;;;;;4.90;4.50;;;;;;;8.58;100.00;100793.16;5002482;28;20195;-51
2022/05/08 04:14:01;;;;;;;5.27;4.73;;;;;;;8.63;100.00;100793.19;5001679;28;20211;-52
2022/05/08 04:16:27;;;;;;;5.60;5.20;;;;;;;8.66;100.00;100796.66;5000258;28;20200;-50
2022/05/08 04:18:52;;;;;;;5.03;4.47;;;;;;;8.74;100.00;100793.28;5004347;28;20772;-50
2022/05/08 04:21:17;;;;;;;5.47;5.07;;;;;;;8.82;100.00;100796.75;5007594;28;20192;-50
2022/05/08 04:26:29;;;;;;;6.00;5.50;;;;;;;9.02;100.00;100807.19;5003170;28;20198;-51
2022/05/08 04:28:54;;;;;;;5.13;4.73;;;;;;;9.09;100.00;100803.81;5006793;28;20193;-53
2022/05/08 04:31:20;;;;;;;5.50;5.00;;;;;;;9.24;100.00;100808.19;4990305;28;20239;-52
2022/05/08 04:33:45;;;;;;;5.27;4.87;;;;;;;9.37;100.00;100809.13;5005899;28;20208;-52
2022/05/08 04:36:11;;;;;;;5.00;4.60;;;;;;;9.46;100.00;100808.28;5006990;28;20223;-52
2022/05/08 04:38:36;;;;;;;5.07;4.63;;;;;;;9.52;100.00;100822.94;5006993;28;20203;-52
2022/05/08 04:41:01;;;;;;;5.40;5.00;;;;;;;9.57;100.00;100819.53;5012466;28;20602;-52
2022/05/08 04:43:27;;;;;;;4.67;4.33;;;;;;;9.64;100.00;100825.56;5005771;28;20297;-52
2022/05/08 04:45:52;;;;;;;4.77;4.47;;;;;;;9.69;100.00;100821.28;5008679;28;20196;-51
2022/05/08 04:48:17;;;;;;;5.17;4.67;;;;;;;9.77;100.00;100816.16;5011119;28;20202;-52
2022/05/08 04:50:43;;;;;;;4.83;4.50;;;;;;;9.89;100.00;100823.94;5003363;28;20199;-51
2022/05/08 04:53:08;;;;;;;4.33;4.03;;;;;;;10.04;100.00;100828.28;5007594;28;20204;-51
2022/05/08 04:55:33;;;;;;;4.50;4.20;;;;;;;10.15;100.00;100830.03;5001401;28;20320;-51
2022/05/08 04:57:59;;;;;;;4.90;4.47;;;;;;;10.23;100.00;100830.88;5008809;28;20600;-50
2022/05/08 05:00:26;;;;;;;4.80;4.40;;;;;;;10.28;100.00;100825.75;5006782;28;20201;-50
2022/05/08 05:02:51;;;;;;;4.80;4.50;;;;;;;10.50;100.00;100817.13;5005131;28;20195;-51
2022/05/08 05:05:16;;;;;;;4.50;4.10;;;;;;;10.66;100.00;100815.38;5007032;28;20204;-50
2022/05/08 05:07:42;;;;;;;4.27;3.97;;;;;;;10.79;100.00;100820.59;5003324;28;20189;-50
2022/05/08 05:10:11;;;;;;;4.47;4.17;;;;;;;10.90;100.00;100821.41;5005447;28;20282;-50
2022/05/08 05:12:38;;;;;;;4.70;4.30;;;;;;;10.95;100.00;100822.28;5004066;28;20192;-51
2022/05/08 05:15:07;;;;;;;4.70;4.30;;;;;;;11.05;100.00;100822.25;5004812;28;20235;-50
2022/05/08 05:17:33;;;;;;;4.43;4.13;;;;;;;11.23;100.00;100827.38;5005358;28;20215;-51
2022/05/08 05:19:59;;;;;;;5.50;5.00;;;;;;;11.41;100.00;100823.88;5005336;28;20206;-50
2022/05/08 05:22:24;;;;;;;4.47;4.17;;;;;;;11.58;100.00;100826.38;5005984;28;20203;-51
2022/05/08 05:24:50;;;;;;;4.70;4.40;;;;;;;11.89;100.00;100827.97;5004771;28;20247;-51
2022/05/08 05:27:16;;;;;;;4.47;4.17;;;;;;;12.27;100.00;100828.63;5003581;28;20199;-51
2022/05/08 05:29:41;;;;;;;5.10;4.70;;;;;;;13.05;100.00;100833.97;5008353;28;20583;-51
2022/05/08 05:32:07;;;;;;;4.20;3.90;;;;;;;14.21;98.22;100837.75;5005351;28;20207;-52
2022/05/08 05:34:32;;;;;;;4.20;3.90;;;;;;;15.28;94.08;100835.06;4988322;28;20268;-52
2022/05/08 05:36:58;;;;;;;4.03;3.70;;;;;;;16.23;91.31;100834.78;5004943;28;20218;-52
2022/05/08 05:39:24;;;;;;;3.90;3.60;;;;;;;17.04;87.98;100832.78;5008186;28;20192;-52
2022/05/08 05:41:50;;;;;;;3.90;3.60;;;;;;;17.70;85.88;100832.66;5013586;28;20693;-50
2022/05/08 05:44:16;;;;;;;4.33;3.93;;;;;;;18.30;83.97;100829.97;5001986;28;20307;-52
2022/05/08 05:49:27;;;;;;;3.53;3.33;;;;;;;19.27;80.35;100833.66;5004016;28;20210;-49
2022/05/08 05:51:54;;;;;;;4.17;3.63;;;;;;;19.71;79.30;100839.91;5007749;28;20198;-50
2022/05/08 05:54:21;;;;;;;3.50;3.20;;;;;;;20.23;78.32;100840.53;5006010;28;20226;-51
2022/05/08 05:56:47;;;;;;;3.90;3.60;;;;;;;20.76;77.71;100841.00;5003285;28;20219;-51
2022/05/08 05:59:13;;;;;;;3.40;3.10;;;;;;;21.26;76.59;100839.69;5006450;28;20207;-51
2022/05/08 06:01:38;;;;;;;3.13;2.93;;;;;;;21.52;75.31;100836.78;5005931;28;20200;-51
2022/05/08 06:04:03;;;;;;;3.60;3.07;;;;;;;21.67;74.54;100845.81;5007146;28;20220;-51
2022/05/08 06:06:29;;;;;;;4.10;3.50;;;;;;;21.74;73.81;100839.31;5002253;28;20196;-50
2022/05/08 06:08:54;;;;;;;3.70;3.40;;;;;;;21.86;72.84;100841.38;5003979;28;20246;-50
2022/05/08 06:11:20;;;;;;;3.77;3.47;;;;;;;21.68;70.62;100845.72;5006032;28;20552;-51
2022/05/08 06:13:45;;;;;;;4.40;3.77;;;;;;;21.64;69.78;100845.94;5004748;28;20266;-51
2022/05/08 06:16:11;;;;;;;3.80;3.40;;;;;;;21.75;69.41;100852.44;5004415;28;20223;-50
2022/05/08 06:18:36;;;;;;;4.23;3.73;;;;;;;21.15;69.41;100849.84;5009013;28;20565;-52
2022/05/08 06:21:02;;;;;;;4.23;3.83;;;;;;;21.07;69.51;100846.72;5006495;28;22068;-50
2022/05/08 06:23:27;;;;;;;4.20;3.83;;;;;;;20.66;70.56;100858.06;5001476;28;20193;-50
2022/05/08 06:25:52;;;;;;;4.30;3.33;;;;;;;20.71;71.00;100851.69;5006498;28;20312;-49
2022/05/08 06:28:19;;;;;;;3.90;3.53;;;;;;;20.06;72.60;100853.50;5011586;28;20211;-52
2022/05/08 06:30:48;;;;;;;3.50;3.30;;;;;;;20.14;72.21;100858.44;5007647;28;20231;-49
2022/05/08 06:33:14;;;;;;;4.13;3.73;;;;;;;20.51;71.69;100860.41;5000693;28;20192;-50
2022/05/08 06:35:40;;;;;;;4.17;3.63;;;;;;;20.76;71.11;100859.41;5003211;28;20362;-51
2022/05/08 06:38:10;;;;;;;3.50;3.23;;;;;;;21.23;70.69;100860.03;5007814;28;20304;-51
2022/05/08 06:40:36;;;;;;;4.93;4.03;;;;;;;21.30;69.38;100851.81;5006004;28;20220;-51
2022/05/08 06:43:01;;;;;;;4.93;4.07;;;;;;;21.54;68.96;100856.03;5004090;28;20204;-50
2022/05/08 06:45:26;;;;;;;4.10;3.70;;;;;;;21.58;68.36;100860.22;5006166;28;20628;-52
2022/05/08 06:47:52;;;;;;;3.60;3.30;;;;;;;21.16;68.71;100856.81;5007022;28;20295;-49
2022/05/08 06:50:18;;;;;;;4.27;3.80;;;;;;;21.22;69.79;100868.84;5008799;28;20242;-50
2022/05/08 06:52:44;;;;;;;4.43;3.87;;;;;;;20.56;70.06;100866.34;5013137;28;20257;-49
2022/05/08 06:55:09;;;;;;;4.90;4.47;;;;;;;19.59;73.25;100865.72;5011276;28;20219;-51
2022/05/08 06:57:34;;;;;;;4.73;4.33;;;;;;;19.23;74.98;100867.94;5006160;28;20703;-50
2022/05/08 07:02:45;;;;;;;5.60;5.10;;;;;;;17.70;80.72;100873.69;5009243;28;20274;-51
2022/05/08 07:05:11;;;;;;;5.77;5.27;;;;;;;17.75;81.02;100872.63;4993195;28;20678;-50
2022/05/08 07:07:36;;;;;;;5.30;4.80;;;;;;;17.60;82.16;100876.56;5007848;28;20203;-50
2022/05/08 07:10:02;;;;;;;6.03;5.63;;;;;;;17.70;81.89;100871.06;5003500;28;20193;-49
2022/05/08 07:12:28;;;;;;;5.93;5.43;;;;;;;17.73;82.02;100873.59;5003855;28;20654;-50
2022/05/08 07:14:56;;;;;;;6.07;5.60;;;;;;;17.86;81.87;100879.31;5009038;28;20262;-49
2022/05/08 07:17:23;;;;;;;7.00;6.37;;;;;;;17.79;82.12;100878.63;5008158;28;20212;-50
2022/05/08 07:19:49;;;;;;;6.70;5.83;;;;;;;18.11;81.92;100879.47;5005906;28;20250;-50
2022/05/08 07:22:17;;;;;;;7.17;6.57;;;;;;;18.04;81.63;100893.66;5006385;28;20188;-50
2022/05/08 07:24:43;;;;;;;7.10;6.40;;;;;;;18.04;81.73;100888.41;5000969;28;20215;-50
2022/05/08 07:27:11;;;;;;;6.60;6.07;;;;;;;17.70;82.34;100881.53;5002291;28;20188;-49
2022/05/08 07:29:40;;;;;;;6.53;6.03;;;;;;;17.47;83.24;100883.06;5004845;28;20215;-49
2022/05/08 07:32:06;;;;;;;6.77;6.27;;;;;;;17.43;83.62;100891.91;5001934;28;20262;-49
2022/05/08 07:37:29;;;;;;;6.80;6.20;;;;;;;17.16;84.89;100889.97;4981270;28;20315;-49
2022/05/08 07:39:55;;;;;;;7.07;6.37;;;;;;;17.14;84.07;100899.63;5007282;28;20297;-49
2022/05/08 07:42:20;;;;;;;7.50;6.80;;;;;;;16.95;85.08;100896.63;5002444;28;20303;-50
2022/05/08 07:44:45;;;;;;;7.37;6.77;;;;;;;16.85;85.65;100895.97;5001988;28;20239;-50
2022/05/08 07:47:11;;;;;;;6.30;5.80;;;;;;;16.97;86.37;100907.03;5004349;28;20194;-49
2022/05/08 07:49:36;;;;;;;7.30;6.70;;;;;;;17.16;85.52;100900.44;5004498;28;20578;-49
2022/05/08 07:52:01;;;;;;;8.37;7.00;;;;;;;17.10;85.69;100908.44;5013660;28;20189;-51
2022/05/08 07:54:27;;;;;;;6.47;5.97;;;;;;;17.28;85.74;100904.50;5000286;28;20347;-49
2022/05/08 07:56:52;;;;;;;7.17;6.57;;;;;;;17.53;85.33;100911.66;5002407;28;20250;-51
2022/05/08 07:59:18;;;;;;;7.00;6.50;;;;;;;17.71;84.56;100902.41;5002353;28;20217;-51
2022/05/08 08:01:43;;;;;;;7.10;6.40;;;;;;;18.01;83.35;100902.44;5003958;28;20263;-49
2022/05/08 08:04:10;;;;;;;6.50;5.93;;;;;;;18.13;83.51;100915.19;5001617;28;20224;-50
2022/05/08 08:06:35;;;;;;;9.47;6.97;;;;;;;18.29;82.27;100914.72;5004649;28;20274;-49
2022/05/08 08:09:01;;;;;;;7.47;6.80;;;;;;;18.28;82.71;100913.00;5006876;28;20609;-49
2022/05/08 08:11:27;;;;;;;7.73;7.03;;;;;;;18.29;82.40;100912.09;5001174;28;20196;-49
2022/05/08 08:13:54;;;;;;;8.13;7.13;;;;;;;18.04;83.46;100906.75;5000430;28;20215;-49
2022/05/08 08:16:19;;;;;;;8.00;7.20;;;;;;;18.11;83.50;100908.25;5000033;28;20197;-49
2022/05/08 08:18:45;;;;;;;7.40;6.80;;;;;;;18.25;82.98;100910.47;5004893;28;20188;-50
2022/05/08 08:21:13;;;;;;;7.37;6.83;;;;;;;18.02;84.78;100911.19;5002136;28;20196;-49
2022/05/08 08:23:40;;;;;;;7.43;6.90;;;;;;;18.06;84.32;100910.19;5001735;28;20676;-49
2022/05/08 08:26:08;;;;;;;8.00;7.20;;;;;;;18.22;84.37;100914.06;4998573;28;20187;-49
2022/05/08 08:28:33;;;;;;;7.30;6.60;;;;;;;18.41;84.33;100916.06;5004560;28;20238;-49
2022/05/08 08:30:59;;;;;;;6.70;6.13;;;;;;;18.76;83.84;100916.72;5001965;28;20187;-49
2022/05/08 08:33:26;;;;;;;7.43;6.83;;;;;;;18.85;83.31;100918.16;4998349;28;20283;-49
2022/05/08 08:35:51;;;;;;;7.10;6.40;;;;;;;18.86;83.63;100920.72;4996261;28;20199;-49
2022/05/08 08:38:17;;;;;;;6.57;5.97;;;;;;;19.04;82.83;100911.44;5005854;28;20249;-49
2022/05/08 08:40:47;;;;;;;6.50;6.00;;;;;;;19.19;82.99;100907.41;5003934;28;20260;-49
2022/05/08 08:43:16;;;;;;;7.17;6.30;;;;;;;19.27;82.64;100915.00;5001277;28;20253;-49
2022/05/08 08:48:31;;;;;;;8.47;7.67;;;;;;;19.59;79.82;100909.50;5003296;28;20757;-49
2022/05/08 08:50:57;;;;;;;7.63;6.50;;;;;;;19.55;80.66;100905.28;5006824;28;20204;-49
2022/05/08 08:53:24;;;;;;;6.83;6.30;;;;;;;19.61;80.75;100903.28;5003343;28;20191;-49
2022/05/08 08:55:50;;;;;;;7.30;6.60;;;;;;;19.49;80.81;100912.47;5003544;28;20188;-49
2022/05/08 08:58:19;;;;;;;6.63;6.13;;;;;;;19.64;80.68;100903.19;5003082;28;20231;-49
2022/05/08 09:00:49;;;;;;;7.13;6.47;;;;;;;19.56;80.16;100905.22;5008084;28;20184;-49
2022/05/08 09:03:20;;;;;;;6.80;6.30;;;;;;;19.32;80.04;100901.72;5009300;28;20192;-49
2022/05/08 09:05:45;;;;;;;7.03;6.43;;;;;;;19.13;81.30;100912.00;5004856;28;20184;-49
2022/05/08 09:08:35;;;;;;;7.03;6.43;;;;;;;19.27;81.54;100904.50;5009217;28;20200;-49
2022/05/08 09:11:00;;;;;;;6.93;6.20;;;;;;;19.43;81.95;100903.97;5004813;28;20203;-49
2022/05/08 09:13:30;;;;;;;6.37;5.77;;;;;;;19.59;81.44;100909.50;5008299;28;20196;-49
2022/05/08 09:16:04;;;;;;;6.83;6.27;;;;;;;19.74;80.86;100905.44;5005337;28;20651;-49
2022/05/08 09:18:42;;;;;;;6.73;6.07;;;;;;;19.90;80.18;100905.75;5006403;28;20282;-49
2022/05/08 09:24:12;;;;;;;8.47;7.53;;;;;;;19.74;79.26;100915.97;5007077;28;20282;-50
2022/05/08 09:26:38;;;;;;;7.20;6.50;;;;;;;19.95;79.29;100903.81;5013816;28;20173;-49
2022/05/08 09:29:04;;;;;;;6.80;6.20;;;;;;;19.79;79.99;100903.53;5018406;28;20191;-50
2022/05/08 09:31:40;;;;;;;6.53;5.93;;;;;;;19.68;79.40;100914.41;5011054;28;20259;-50
2022/05/08 09:34:06;;;;;;;5.97;5.57;;;;;;;19.67;80.27;100906.59;5005675;28;20211;-50
2022/05/08 09:36:31;;;;;;;6.43;5.80;;;;;;;19.67;79.28;100903.97;5005460;28;20311;-49
2022/05/08 09:39:01;;;;;;;5.67;5.20;;;;;;;20.05;79.59;100913.03;5007163;28;20547;-50
2022/05/08 09:41:32;;;;;;;5.23;4.73;;;;;;;20.27;78.78;100887.72;5008041;28;20263;-49
2022/05/08 09:44:10;;;;;;;6.20;5.60;;;;;;;20.26;78.45;100905.25;4989434;28;20617;-49
2022/05/08 09:46:40;;;;;;;5.40;4.90;;;;;;;20.49;77.72;100903.47;5000495;28;20177;-49
2022/05/08 09:49:06;;;;;;;5.67;5.17;;;;;;;20.40;78.42;100908.19;5002795;28;20192;-49
2022/05/08 09:51:33;;;;;;;6.33;5.83;;;;;;;20.24;77.50;100900.06;5005642;28;20642;-49
2022/05/08 09:54:00;;;;;;;6.70;6.20;;;;;;;19.94;78.40;100902.09;5007900;28;20207;-49
2022/05/08 09:56:25;;;;;;;6.33;5.83;;;;;;;20.22;78.00;100893.13;5002625;28;20254;-49
2022/05/08 09:58:50;;;;;;;7.13;6.47;;;;;;;20.11;78.34;100893.59;5005029;28;20661;-49
2022/05/08 10:01:16;;;;;;;6.70;6.20;;;;;;;20.35;77.49;100893.50;5007252;28;20200;-50
2022/05/08 10:03:43;;;;;;;6.83;6.23;;;;;;;20.30;77.37;100888.44;5003905;28;20218;-49
2022/05/08 10:06:09;;;;;;;6.90;6.13;;;;;;;20.18;77.66;100887.16;5008623;28;20188;-49
2022/05/08 10:08:39;;;;;;;6.20;5.70;;;;;;;20.60;77.90;100893.38;5001070;28;20557;-49
2022/05/08 10:13:58;;;;;;;6.43;5.93;;;;;;;20.59;75.92;100888.16;5002262;28;20740;-49
2022/05/08 10:16:49;;;;;;;7.80;5.97;;;;;;;20.31;75.39;100889.28;5002449;28;20195;-49
2022/05/08 10:19:17;;;;;;;7.50;5.67;;;;;;;20.45;77.19;100878.22;5003719;28;20669;-49
2022/05/08 10:21:52;;;;;;;6.60;6.00;;;;;;;20.66;76.06;100882.56;5004750;28;20185;-49
2022/05/08 10:24:30;;;;;;;7.10;6.53;;;;;;;20.74;76.31;100887.50;5000641;28;20215;-49
2022/05/08 10:27:15;;;;;;;5.70;5.10;;;;;;;21.01;74.88;100879.41;5005288;28;20187;-49
2022/05/08 10:29:41;;;;;;;6.90;6.30;;;;;;;21.11;74.39;100893.88;5007397;28;20267;-49
2022/05/08 10:32:09;;;;;;;6.50;6.00;;;;;;;21.03;75.18;100880.19;5008013;28;20195;-49
2022/05/08 10:34:37;;;;;;;6.43;5.80;;;;;;;20.90;75.82;100879.00;5005362;28;20199;-49
2022/05/08 10:37:12;;;;;;;6.80;6.00;;;;;;;21.09;75.38;100879.09;5005939;28;20215;-49
2022/05/08 10:39:41;;;;;;;5.77;5.27;;;;;;;21.08;75.85;100872.97;5006215;28;20195;-49
2022/05/08 10:42:39;;;;;;;6.40;5.87;;;;;;;20.82;76.45;100874.94;5002932;28;20403;-49
2022/05/08 10:45:05;;;;;;;6.77;6.07;;;;;;;20.76;75.69;100882.25;5003766;28;20679;-49
2022/05/08 10:47:36;;;;;;;5.93;5.43;;;;;;;21.21;75.37;100872.41;5005522;28;20203;-49
2022/05/08 10:50:09;;;;;;;5.90;5.50;;;;;;;21.39;74.74;100865.50;5007041;28;20192;-49
2022/05/08 10:52:47;;;;;;;6.87;5.80;;;;;;;21.13;74.80;100876.25;5006321;28;20557;-49
2022/05/08 10:55:15;;;;;;;6.03;5.63;;;;;;;21.16;75.21;100865.59;4987163;28;20579;-49
2022/05/08 10:57:43;;;;;;;5.90;5.40;;;;;;;21.29;74.49;100867.69;5004232;28;20235;-49
2022/05/08 11:00:11;;;;;;;7.00;6.30;;;;;;;21.14;73.73;100874.47;5004606;28;20184;-49
2022/05/08 11:02:52;;;;;;;6.20;5.67;;;;;;;21.60;72.29;100863.69;5007679;28;20196;-49
2022/05/08 11:05:28;;;;;;;6.83;6.23;;;;;;;21.13;73.43;100873.63;5007992;28;20764;-49
2022/05/08 11:08:00;;;;;;;5.57;5.07;;;;;;;21.50;73.95;100870.25;5005528;28;20192;-49
2022/05/08 11:10:34;;;;;;;5.80;5.30;;;;;;;21.50;72.98;100870.25;5004432;28;20187;-49
2022/05/08 11:13:02;;;;;;;5.20;4.87;;;;;;;21.90;71.90;100861.38;5000712;28;20188;-49
2022/05/08 11:15:32;;;;;;;5.80;4.97;;;;;;;21.81;71.52;100869.72;5002953;28;20208;-49
2022/05/08 11:18:11;;;;;;;6.00;5.40;;;;;;;21.91;72.97;100867.53;5001998;28;20218;-49
2022/05/08 11:20:48;;;;;;;5.17;4.63;;;;;;;21.92;72.75;100863.97;5004600;28;20195;-49
2022/05/08 11:23:18;;;;;;;5.33;4.83;;;;;;;22.27;71.61;100856.13;5003237;28;20279;-49
2022/05/08 11:25:52;;;;;;;4.33;3.93;;;;;;;22.65;70.44;100861.31;5004065;28;20210;-49
2022/05/08 11:28:23;;;;;;;3.83;3.50;;;;;;;22.64;68.20;100866.63;5002652;28;20242;-49
2022/05/08 11:30:53;;;;;;;4.67;4.27;;;;;;;22.92;67.50;100858.19;5004309;28;20192;-49
2022/05/08 11:36:21;;;;;;;4.70;4.40;;;;;;;23.21;68.14;100855.00;4997503;28;20215;-49
2022/05/08 11:39:01;;;;;;;4.93;4.27;;;;;;;22.72;64.81;100875.03;5001658;28;20192;-49
2022/05/08 11:41:34;;;;;;;5.60;4.33;;;;;;;22.80;65.67;100856.19;5002702;28;20188;-49
2022/05/08 11:44:02;;;;;;;4.23;3.83;;;;;;;22.74;64.93;100849.44;5005091;28;20287;-49
2022/05/08 11:46:39;;;;;;;4.53;3.87;;;;;;;22.87;64.46;100843.53;5002696;28;20710;-49
2022/05/08 11:49:13;;;;;;;3.97;3.67;;;;;;;23.29;64.40;100839.56;5005147;28;20283;-49
2022/05/08 11:51:50;;;;;;;4.43;3.50;;;;;;;23.48;64.52;100841.22;5004751;28;20187;-49
2022/05/08 11:54:30;;;;;;;4.47;3.67;;;;;;;23.34;63.18;100841.97;5002843;28;20210;-49
2022/05/08 11:57:17;;;;;;;4.50;3.73;;;;;;;22.97;62.49;100864.09;5007285;28;20200;-50